createdAt,value
2023-04-21T00:00:24.232Z,100541.59
2023-04-21T00:05:26.651Z,100534.69
2023-04-21T00:10:27.350Z,100530.34
2023-04-21T00:15:27.947Z,100534.69
2023-04-21T00:20:30.597Z,100523.44
2023-04-21T00:25:31.292Z,100519.13
2023-04-21T00:30:31.908Z,100526.88
2023-04-21T00:35:33.901Z,100528.50
2023-04-21T00:40:34.853Z,100520.75
2023-04-21T00:45:36.014Z,100519.00
2023-04-21T00:50:38.154Z,100509.50
2023-04-21T00:55:40.532Z,100512.06
2023-04-21T01:00:42.998Z,100512.91
2023-04-21T01:05:44.926Z,100509.50
2023-04-21T01:10:45.901Z,100520.66
2023-04-21T01:15:46.547Z,100512.06
2023-04-21T01:20:50.016Z,100500.81
2023-04-21T01:25:52.748Z,100504.25
2023-04-21T01:30:54.138Z,100501.66
2023-04-21T01:35:56.378Z,100505.91
2023-04-21T01:40:58.385Z,100494.72
2023-04-21T01:45:59.038Z,100491.22
2023-04-21T01:50:59.658Z,100495.53
2023-04-21T01:56:01.650Z,100487.75
2023-04-21T02:01:04.945Z,100494.63
2023-04-21T02:06:06.060Z,100497.22
2023-04-21T02:11:08.351Z,100482.53
2023-04-21T02:16:13.911Z,100487.69
2023-04-21T02:21:15.467Z,100480.81
2023-04-21T02:26:17.887Z,100484.25
2023-04-21T02:31:18.744Z,100482.53
2023-04-21T02:36:19.358Z,100485.06
2023-04-21T02:41:21.286Z,100484.19
2023-04-21T02:46:21.865Z,100480.75
2023-04-21T02:51:23.562Z,100482.44
2023-04-21T02:56:25.670Z,100481.56
2023-04-21T03:01:26.355Z,100491.78
2023-04-21T03:06:28.245Z,100486.63
2023-04-21T03:11:30.208Z,100492.63
2023-04-21T03:16:30.793Z,100493.44
2023-04-21T03:21:31.869Z,100487.41
2023-04-21T03:26:33.998Z,100480.47
2023-04-21T03:31:34.613Z,100480.41
2023-04-21T03:36:35.238Z,100476.97
2023-04-21T03:41:37.269Z,100482.97
2023-04-21T03:46:38.008Z,100483.78
2023-04-21T03:51:38.614Z,100490.59
2023-04-21T03:56:40.492Z,100490.59
2023-04-21T04:01:42.267Z,100494.84
2023-04-21T04:06:42.907Z,100500.13
2023-04-21T04:11:44.809Z,100503.81
2023-04-21T04:16:45.798Z,100510.03
2023-04-21T04:21:48.848Z,100505.53
2023-04-21T04:26:51.219Z,100508.78
2023-04-21T04:31:52.164Z,100502.72
2023-04-21T04:36:52.722Z,100513.06
2023-04-21T04:41:54.603Z,100512.22
2023-04-21T04:46:55.316Z,100508.84
2023-04-21T04:51:56.133Z,100510.56
2023-04-21T04:56:58.702Z,100520.94
2023-04-21T05:01:59.325Z,100510.69
2023-04-21T05:06:59.962Z,100521.03
2023-04-21T05:12:02.470Z,100527.22
2023-04-21T05:17:03.206Z,100527.28
2023-04-21T05:22:06.455Z,100528.16
2023-04-21T05:27:08.375Z,100528.25
2023-04-21T05:32:09.192Z,100524.88
2023-04-21T05:37:11.501Z,100521.47
2023-04-21T05:42:13.439Z,100527.56
2023-04-21T05:47:14.044Z,100527.63
2023-04-21T05:52:14.621Z,100529.38
2023-04-21T05:57:17.770Z,100512.22
2023-04-21T06:02:18.708Z,100514.84
2023-04-21T06:07:19.686Z,100519.16
2023-04-21T06:12:21.575Z,100514.00
2023-04-21T06:17:22.480Z,100511.41
2023-04-21T06:22:23.358Z,100507.97
2023-04-21T06:27:25.278Z,100498.41
2023-04-21T06:32:25.972Z,100502.69
2023-04-21T06:37:26.787Z,100491.41
2023-04-21T06:42:28.725Z,100491.34
2023-04-21T06:47:29.310Z,100481.75
2023-04-21T06:52:29.970Z,100483.31
2023-04-21T06:57:31.860Z,100491.84
2023-04-21T07:02:32.614Z,100483.00
2023-04-21T07:07:33.221Z,100482.81
2023-04-21T07:12:35.099Z,100487.78
2023-04-21T07:17:35.918Z,100474.50
2023-04-21T07:22:37.005Z,100475.06
2023-04-21T07:27:39.390Z,100468.75
2023-04-21T07:32:40.083Z,100465.69
2023-04-21T07:37:41.095Z,100464.47
2023-04-21T07:42:43.131Z,100452.88
2023-04-21T07:47:43.800Z,100450.75
2023-04-21T07:52:44.506Z,100449.25
2023-04-21T07:57:46.502Z,100450.47
2023-04-21T08:02:47.259Z,100438.47
2023-04-21T08:07:48.124Z,100426.38
2023-04-21T08:12:50.094Z,100427.28
2023-04-21T08:17:50.692Z,100418.50
2023-04-21T08:22:51.413Z,100410.25
2023-04-21T08:27:53.385Z,100400.69
2023-04-21T08:32:54.015Z,100401.88
2023-04-21T08:37:54.680Z,100388.09
2023-04-21T08:42:59.255Z,100370.69
2023-04-21T08:48:01.405Z,100371.31
2023-04-21T08:53:02.084Z,100364.91
2023-04-21T08:58:06.836Z,100364.34
2023-04-21T09:03:19.241Z,100363.69
2023-04-21T09:08:27.994Z,100359.97
2023-04-21T09:13:34.358Z,100363.28
2023-04-21T09:18:36.206Z,100348.38
2023-04-21T09:23:44.455Z,100351.91
2023-04-21T09:28:47.750Z,100341.91
2023-04-21T09:39:17.793Z,100331.66
2023-04-21T09:44:21.480Z,100329.75
2023-04-21T09:49:24.188Z,100329.13
2023-04-21T09:54:30.550Z,100323.63
2023-04-21T09:59:36.595Z,100316.28
2023-04-21T10:04:38.891Z,100300.56
2023-04-21T10:09:45.896Z,100297.59
2023-04-21T10:14:51.186Z,100303.13
2023-04-21T10:19:53.550Z,100300.47
2023-04-21T10:24:56.678Z,100296.84
2023-04-21T10:29:59.564Z,100291.78
2023-04-21T10:35:00.120Z,100278.88
2023-04-21T10:40:00.713Z,100280.63
2023-04-21T10:45:08.357Z,100282.75
2023-04-21T10:50:14.879Z,100281.47
2023-04-21T10:55:17.019Z,100278.66
2023-04-21T11:00:21.712Z,100259.56
2023-04-21T11:05:28.854Z,100263.25
2023-04-21T11:10:29.472Z,100263.59
2023-04-21T11:15:32.069Z,100254.69
2023-04-21T11:20:32.767Z,100247.47
2023-04-21T11:25:33.601Z,100244.13
2023-04-21T11:30:36.125Z,100250.75
2023-04-21T11:35:41.683Z,100246.00
2023-04-21T11:40:47.503Z,100245.19
2023-04-21T11:45:51.668Z,100234.22
2023-04-21T11:50:52.283Z,100247.00
2023-04-21T11:55:53.965Z,100231.94
2023-04-21T12:00:56.173Z,100237.59
2023-04-21T12:05:57.651Z,100230.63
2023-04-21T12:10:59.269Z,100236.97
2023-04-21T12:16:04.119Z,100235.84
2023-04-21T12:21:05.314Z,100229.03
2023-04-21T12:26:06.101Z,100233.69
2023-04-21T12:31:08.096Z,100214.78
2023-04-21T12:36:13.622Z,100212.31
2023-04-21T12:41:27.426Z,100216.78
2023-04-21T12:46:29.645Z,100208.16
2023-04-21T12:51:31.550Z,100208.41
2023-04-21T12:56:32.143Z,100207.09
2023-04-21T13:01:34.215Z,100205.91
2023-04-21T13:06:34.889Z,100194.38
2023-04-21T13:11:35.592Z,100179.28
2023-04-21T13:16:37.678Z,100179.97
2023-04-21T13:21:38.542Z,100191.91
2023-04-21T13:26:39.183Z,100188.09
2023-04-21T13:31:41.340Z,100180.22
2023-04-21T13:36:42.254Z,100174.44
2023-04-21T13:41:42.989Z,100170.19
2023-04-21T13:46:45.164Z,100148.50
2023-04-21T13:51:45.882Z,100151.63
2023-04-21T13:56:46.599Z,100143.25
2023-04-21T14:01:48.799Z,100140.72
2023-04-21T14:06:49.870Z,100136.94
2023-04-21T14:11:51.112Z,100127.72
2023-04-21T14:16:53.200Z,100131.28
2023-04-21T14:21:54.017Z,100135.56
2023-04-21T14:26:54.714Z,100133.91
2023-04-21T14:31:58.588Z,100126.09
2023-04-21T14:37:00.513Z,100116.84
2023-04-21T14:42:01.872Z,100115.81
2023-04-21T14:47:09.807Z,100110.22
2023-04-21T14:52:11.562Z,100107.66
2023-04-21T14:57:20.686Z,100090.25
2023-04-21T15:02:23.920Z,100096.19
2023-04-21T15:07:25.114Z,100099.94
2023-04-21T15:12:26.265Z,100090.34
2023-04-21T15:17:28.384Z,100089.66
2023-04-21T15:22:29.207Z,100082.69
2023-04-21T15:27:30.233Z,100088.72
2023-04-21T15:32:32.375Z,100072.31
2023-04-21T15:37:33.169Z,100064.75
2023-04-21T15:42:33.864Z,100070.88
2023-04-21T15:47:35.929Z,100063.19
2023-04-21T15:52:37.770Z,100061.88
2023-04-21T15:57:38.788Z,100063.69
2023-04-21T16:02:41.132Z,100067.41
2023-04-21T16:07:43.396Z,100065.91
2023-04-21T16:12:45.472Z,100064.63
2023-04-21T16:17:48.847Z,100061.59
2023-04-21T16:22:50.120Z,100053.66
2023-04-21T16:27:50.856Z,100051.28
2023-04-21T16:32:52.862Z,100052.81
2023-04-21T16:37:53.620Z,100055.03
2023-04-21T16:42:54.387Z,100050.38
2023-04-21T16:47:56.543Z,100041.59
2023-04-21T16:52:57.425Z,100036.81
2023-04-21T16:57:58.112Z,100043.00
2023-04-21T17:03:00.324Z,100036.81
2023-04-21T17:08:01.271Z,100038.00
2023-04-21T17:13:02.031Z,100030.34
2023-04-21T17:18:04.201Z,100034.38
2023-04-21T17:23:05.059Z,100032.81
2023-04-21T17:28:06.229Z,100034.44
2023-04-21T17:33:15.877Z,100035.91
2023-04-21T17:38:18.087Z,100032.59
2023-04-21T17:43:18.756Z,100042.28
2023-04-21T17:48:21.019Z,100043.34
2023-04-21T17:53:21.725Z,100041.16
2023-04-21T17:58:22.608Z,100049.78
2023-04-21T18:03:24.852Z,100046.91
2023-04-21T18:08:26.415Z,100060.50
2023-04-21T18:13:27.133Z,100058.91
2023-04-21T18:18:29.869Z,100067.09
2023-04-21T18:23:30.514Z,100069.66
2023-04-21T18:28:32.016Z,100077.81
2023-04-21T18:33:34.051Z,100073.44
2023-04-21T18:38:34.778Z,100075.78
2023-04-21T18:43:35.560Z,100087.34
2023-04-21T18:48:37.572Z,100087.09
2023-04-21T18:53:38.231Z,100085.69
2023-04-21T18:58:38.957Z,100087.88
2023-04-21T19:03:41.183Z,100089.13
2023-04-21T19:08:43.128Z,100091.34
2023-04-21T19:13:44.024Z,100095.69
2023-04-21T19:18:47.326Z,100098.84
2023-04-21T19:23:48.308Z,100085.66
2023-04-21T19:28:49.254Z,100103.88
2023-04-21T19:33:52.439Z,100095.41
2023-04-21T19:38:53.159Z,100093.41
2023-04-21T19:43:53.861Z,100096.44
2023-04-21T19:48:55.886Z,100090.34
2023-04-21T19:54:10.089Z,100094.84
2023-04-21T19:59:12.368Z,100097.88
2023-04-21T20:04:14.553Z,100093.47
2023-04-21T20:09:16.082Z,100097.50
2023-04-21T20:14:18.335Z,100107.28
2023-04-21T20:19:23.018Z,100103.69
2023-04-21T20:24:23.985Z,100111.97
2023-04-21T20:29:24.698Z,100112.78
2023-04-21T20:34:26.781Z,100116.78
2023-04-21T20:39:27.448Z,100116.13
2023-04-21T20:44:31.409Z,100126.13
2023-04-21T20:49:33.510Z,100129.94
2023-04-21T20:54:34.830Z,100130.28
2023-04-21T20:59:36.023Z,100126.44
2023-04-21T21:04:38.261Z,100135.25
2023-04-21T21:09:39.943Z,100130.34
2023-04-21T21:14:41.080Z,100132.69
2023-04-21T21:19:43.129Z,100140.38
2023-04-21T21:24:43.991Z,100137.38
2023-04-21T21:29:44.710Z,100142.69
2023-04-21T21:34:46.725Z,100150.91
2023-04-21T21:39:47.361Z,100158.34
2023-04-21T21:44:47.999Z,100164.31
2023-04-21T21:49:54.704Z,100164.72
2023-04-21T21:54:56.889Z,100163.28
2023-04-21T21:59:57.600Z,100172.78
2023-04-21T22:04:59.805Z,100180.13
2023-04-21T22:10:00.591Z,100184.69
2023-04-21T22:15:01.235Z,100182.25
2023-04-21T22:20:08.162Z,100184.09
2023-04-21T22:25:10.835Z,100179.22
2023-04-21T22:30:12.332Z,100195.97
2023-04-21T22:35:14.427Z,100191.59
2023-04-21T22:40:15.198Z,100190.97
2023-04-21T22:45:15.878Z,100199.88
2023-04-21T22:50:17.869Z,100205.44
2023-04-21T22:55:18.790Z,100209.00
2023-04-21T23:00:19.450Z,100203.78
2023-04-21T23:05:21.417Z,100203.91
2023-04-21T23:10:22.247Z,100204.09
2023-04-21T23:15:22.963Z,100199.06
2023-04-21T23:20:25.014Z,100205.31
2023-04-21T23:25:25.764Z,100212.47
2023-04-21T23:30:26.443Z,100212.78
2023-04-21T23:35:28.682Z,100210.38
2023-04-21T23:40:29.573Z,100200.03
2023-04-21T23:45:30.389Z,100206.16
2023-04-21T23:50:32.525Z,100208.72
2023-04-21T23:55:33.239Z,100202.94
